Time;durP1;ratioP1;P1;durP2;ratioP2;P2;SDS_P1;SDS_P2;PMS_P1;PMS_P2;Temp;Humidity;BMP_temperature;BMP_pressure;BME280_temperature;BME280_humidity;BME280_pressure;Samples;Min_cycle;Max_cycle;Signal;HPM_P1;HPM_P2
2023/11/03 00:00:05;;;;;;;;;;;;;;;30.17;23.02;95907.09;4901948;29;19931;-93
2023/11/03 00:02:31;;;;;;;;;;;;;;;30.06;23.39;95890.94;4901968;29;19930;-94
2023/11/03 00:05:04;;;;;;;;;;;;;;;29.92;23.81;95885.69;4914621;29;19919;-93
2023/11/03 00:07:30;;;;;;;;;;;;;;;29.26;24.73;95878.38;4917084;29;19923;-93
2023/11/03 00:09:57;;;;;;;;;;;;;;;28.44;26.30;95874.50;4915116;29;20379;-93
2023/11/03 00:12:24;;;;;;;;;;;;;;;26.56;29.16;95875.63;4906008;29;19934;-93
2023/11/03 00:14:50;;;;;;;;;;;;;;;28.10;27.02;95875.84;4914994;29;20414;-94
2023/11/03 00:17:16;;;;;;;;;;;;;;;29.23;25.37;95879.41;4901590;29;19930;-93
2023/11/03 00:19:46;;;;;;;;;;;;;;;29.91;24.57;95884.13;4918723;29;20443;-93
2023/11/03 00:22:12;;;;;;;;;;;;;;;30.36;23.84;95884.56;4914231;29;20399;-93
2023/11/03 00:24:38;;;;;;;;;;;;;;;30.55;23.21;95869.16;4903671;29;20375;-94
2023/11/03 00:27:05;;;;;;;;;;;;;;;30.17;23.64;95875.19;4919208;29;19971;-93
2023/11/03 00:29:31;;;;;;;;;;;;;;;30.06;24.11;95870.38;4912792;29;19969;-94
2023/11/03 00:31:57;;;;;;;;;;;;;;;29.24;25.73;95864.00;4905332;29;19959;-93
2023/11/03 00:34:23;;;;;;;;;;;;;;;28.78;25.65;95858.28;4890429;29;19981;-93
2023/11/03 00:36:49;;;;;;;;;;;;;;;28.66;26.36;95869.59;4908157;29;19973;-93
2023/11/03 00:39:18;;;;;;;;;;;;;;;29.44;25.12;95866.44;4904193;29;19962;-93
2023/11/03 00:41:47;;;;;;;;;;;;;;;29.26;25.06;95859.34;4905456;29;20022;-93
2023/11/03 00:44:14;;;;;;;;;;;;;;;29.13;25.50;95853.47;4910340;29;19927;-93
2023/11/03 00:46:42;;;;;;;;;;;;;;;29.27;24.98;95848.78;4909887;29;19927;-93
2023/11/03 00:49:08;;;;;;;;;;;;;;;28.59;25.87;95841.13;4913218;29;19923;-93
2023/11/03 00:51:34;;;;;;;;;;;;;;;28.82;25.84;95856.72;4906240;29;19931;-93
2023/11/03 00:54:04;;;;;;;;;;;;;;;28.90;25.37;95857.69;4904530;29;20299;-93
2023/11/03 00:56:31;;;;;;;;;;;;;;;29.25;24.57;95854.97;4901416;29;19949;-90
2023/11/03 00:58:57;;;;;;;;;;;;;;;29.46;24.79;95849.72;4913622;29;19919;-90
2023/11/03 01:01:23;;;;;;;;;;;;;;;28.83;26.04;95846.16;4899863;29;20431;-90
2023/11/03 01:03:49;;;;;;;;;;;;;;;28.28;26.31;95841.44;4907267;29;19934;-90
2023/11/03 01:06:15;;;;;;;;;;;;;;;28.93;25.94;95836.88;4906949;29;19999;-91
2023/11/03 01:08:41;;;;;;;;;;;;;;;29.18;25.96;95826.50;4905790;29;19919;-91
2023/11/03 01:11:09;;;;;;;;;;;;;;;28.73;26.36;95814.63;4910116;29;19950;-91
2023/11/03 01:13:36;;;;;;;;;;;;;;;28.87;26.23;95815.59;4906049;29;19923;-91
2023/11/03 01:16:07;;;;;;;;;;;;;;;28.70;26.57;95821.31;4907218;29;19932;-92
2023/11/03 01:18:33;;;;;;;;;;;;;;;28.88;26.29;95817.91;4905902;29;19923;-91
2023/11/03 01:20:59;;;;;;;;;;;;;;;28.78;26.14;95824.38;4909969;29;19955;-91
2023/11/03 01:23:25;;;;;;;;;;;;;;;29.18;26.05;95806.72;4907633;29;19923;-91
2023/11/03 01:25:51;;;;;;;;;;;;;;;28.72;27.20;95793.31;4901330;29;19931;-91
2023/11/03 01:28:17;;;;;;;;;;;;;;;28.50;27.17;95787.72;4903103;29;19930;-91
2023/11/03 01:30:44;;;;;;;;;;;;;;;28.10;27.83;95785.56;4913356;29;19932;-91
2023/11/03 01:33:10;;;;;;;;;;;;;;;28.56;27.13;95796.97;4903648;29;19927;-91
2023/11/03 01:35:37;;;;;;;;;;;;;;;29.46;25.45;95803.69;4911914;29;20292;-91
2023/11/03 01:38:04;;;;;;;;;;;;;;;29.55;25.84;95803.38;4912826;29;19923;-93
2023/11/03 01:40:30;;;;;;;;;;;;;;;29.32;25.67;95797.88;4899985;29;19930;-93
2023/11/03 01:42:56;;;;;;;;;;;;;;;29.34;25.83;95808.66;4899181;29;20079;-93
2023/11/03 01:45:22;;;;;;;;;;;;;;;29.95;24.61;95811.03;4900076;29;20291;-94
2023/11/03 01:47:48;;;;;;;;;;;;;;;30.15;24.87;95802.13;4917875;29;19923;-94
2023/11/03 01:50:17;;;;;;;;;;;;;;;30.23;24.49;95791.72;4916049;29;20399;-93
2023/11/03 01:52:46;;;;;;;;;;;;;;;29.78;25.78;95801.94;4914739;29;20287;-94
2023/11/03 01:55:14;;;;;;;;;;;;;;;29.77;25.38;95806.06;4900199;29;19930;-94
2023/11/03 01:57:40;;;;;;;;;;;;;;;29.55;25.20;95783.56;4903898;29;19919;-93
2023/11/03 02:00:07;;;;;;;;;;;;;;;28.55;26.62;95790.53;4889717;29;20287;-93
2023/11/03 02:02:33;;;;;;;;;;;;;;;28.05;27.67;95785.03;4908291;29;20483;-93
2023/11/03 02:04:59;;;;;;;;;;;;;;;27.79;27.78;95784.53;4917328;29;19926;-91
2023/11/03 02:07:25;;;;;;;;;;;;;;;27.09;28.54;95781.94;4917956;29;19923;-91
2023/11/03 02:09:51;;;;;;;;;;;;;;;26.69;29.05;95780.25;4917723;29;20006;-91
2023/11/03 02:12:17;;;;;;;;;;;;;;;26.48;29.08;95773.28;4898764;29;19923;-91
2023/11/03 02:14:43;;;;;;;;;;;;;;;26.09;29.89;95770.22;4910752;29;19955;-91
2023/11/03 02:17:09;;;;;;;;;;;;;;;26.43;29.59;95770.41;4903484;29;19923;-91
2023/11/03 02:19:35;;;;;;;;;;;;;;;28.15;26.99;95771.41;4901866;29;19971;-92
2023/11/03 02:22:02;;;;;;;;;;;;;;;29.31;25.10;95767.31;4917027;29;19919;-91
2023/11/03 02:24:28;;;;;;;;;;;;;;;29.82;24.36;95751.50;4915490;29;19931;-91
2023/11/03 02:26:54;;;;;;;;;;;;;;;29.92;24.50;95773.25;4909415;29;19954;-91
2023/11/03 02:29:21;;;;;;;;;;;;;;;30.36;23.57;95762.81;4909289;29;20375;-91
2023/11/03 02:31:49;;;;;;;;;;;;;;;30.02;24.17;95756.69;4906837;29;20385;-91
2023/11/03 02:34:15;;;;;;;;;;;;;;;30.29;24.13;95752.81;4907390;29;19930;-91
2023/11/03 02:36:41;;;;;;;;;;;;;;;30.66;23.71;95757.81;4909936;29;19923;-91
2023/11/03 02:39:07;;;;;;;;;;;;;;;30.45;24.23;95742.63;4912672;29;20041;-91
2023/11/03 02:41:33;;;;;;;;;;;;;;;30.20;24.13;95747.47;4907636;29;20001;-91
2023/11/03 02:43:59;;;;;;;;;;;;;;;30.40;23.36;95746.28;4903292;29;19959;-91
2023/11/03 02:46:25;;;;;;;;;;;;;;;30.53;23.24;95743.53;4900389;29;19927;-91
2023/11/03 02:48:51;;;;;;;;;;;;;;;29.92;23.59;95747.03;4911173;29;19919;-91
2023/11/03 02:51:17;;;;;;;;;;;;;;;30.13;23.44;95736.75;4918369;29;19930;-91
2023/11/03 02:53:44;;;;;;;;;;;;;;;29.41;24.04;95732.53;4923292;29;19923;-90
2023/11/03 02:56:10;;;;;;;;;;;;;;;29.17;25.25;95743.72;4907051;29;19919;-91
2023/11/03 02:58:37;;;;;;;;;;;;;;;29.98;23.81;95744.91;4901220;29;19975;-91
2023/11/03 03:01:05;;;;;;;;;;;;;;;30.85;22.98;95735.91;4904898;29;20459;-91
2023/11/03 03:03:31;;;;;;;;;;;;;;;30.99;22.83;95722.59;4909148;29;20391;-90
2023/11/03 03:05:57;;;;;;;;;;;;;;;30.78;24.01;95728.03;4900850;29;20006;-91
2023/11/03 03:08:24;;;;;;;;;;;;;;;30.84;24.16;95725.09;4900067;29;19924;-91
2023/11/03 03:10:50;;;;;;;;;;;;;;;30.77;24.25;95720.81;4900997;29;19920;-91
2023/11/03 03:13:16;;;;;;;;;;;;;;;30.76;24.36;95720.03;4898937;29;20280;-91
2023/11/03 03:15:42;;;;;;;;;;;;;;;31.17;23.88;95713.31;4898352;29;19931;-91
2023/11/03 03:18:08;;;;;;;;;;;;;;;30.85;23.58;95712.47;4909147;29;19938;-91
2023/11/03 03:20:35;;;;;;;;;;;;;;;30.88;23.07;95700.06;4915459;29;19933;-91
2023/11/03 03:23:01;;;;;;;;;;;;;;;30.27;24.10;95676.13;4913767;29;19931;-91
2023/11/03 03:25:27;;;;;;;;;;;;;;;29.99;24.04;95684.19;4913803;29;20302;-91
2023/11/03 03:27:55;;;;;;;;;;;;;;;30.43;23.34;95703.50;4909578;29;19930;-91
2023/11/03 03:30:21;;;;;;;;;;;;;;;30.93;22.71;95702.84;4914092;29;19919;-91
2023/11/03 03:32:47;;;;;;;;;;;;;;;31.13;22.44;95695.84;4906848;29;19919;-91
2023/11/03 03:35:13;;;;;;;;;;;;;;;30.23;22.73;95677.72;4916301;29;19931;-91
2023/11/03 03:37:39;;;;;;;;;;;;;;;28.45;25.78;95681.25;4910387;29;19930;-90
2023/11/03 03:40:05;;;;;;;;;;;;;;;29.54;24.13;95698.00;4897918;29;20002;-91
2023/11/03 03:42:31;;;;;;;;;;;;;;;30.57;23.44;95690.19;4903507;29;19983;-90
2023/11/03 03:44:57;;;;;;;;;;;;;;;30.90;22.75;95678.41;4906406;29;19923;-91
2023/11/03 03:47:23;;;;;;;;;;;;;;;30.89;23.01;95667.59;4902117;29;20045;-90
2023/11/03 03:49:49;;;;;;;;;;;;;;;29.56;24.13;95652.97;4902359;29;19923;-91
2023/11/03 03:52:15;;;;;;;;;;;;;;;29.29;24.32;95643.47;4901853;29;19930;-90
2023/11/03 03:54:41;;;;;;;;;;;;;;;29.53;25.25;95645.53;4901577;29;20283;-90
2023/11/03 03:57:07;;;;;;;;;;;;;;;27.95;26.20;95650.41;4914513;29;19923;-90
2023/11/03 03:59:34;;;;;;;;;;;;;;;27.07;27.28;95656.94;4901570;29;20092;-90
2023/11/03 04:02:00;;;;;;;;;;;;;;;26.32;28.41;95646.59;4902437;29;19951;-90
2023/11/03 04:04:26;;;;;;;;;;;;;;;28.11;26.19;95646.00;4901040;29;20065;-90
2023/11/03 04:06:52;;;;;;;;;;;;;;;28.73;24.81;95645.16;4901327;29;19923;-89
2023/11/03 04:09:18;;;;;;;;;;;;;;;28.43;25.59;95641.47;4903789;29;19924;-90
2023/11/03 04:11:44;;;;;;;;;;;;;;;25.37;29.54;95620.81;4919839;29;19931;-89
2023/11/03 04:14:10;;;;;;;;;;;;;;;24.25;31.45;95616.81;4904719;29;20392;-89
2023/11/03 04:16:36;;;;;;;;;;;;;;;25.46;30.55;95605.06;4901051;29;19924;-88
2023/11/03 04:19:03;;;;;;;;;;;;;;;25.38;29.87;95597.06;4904340;29;19926;-89
2023/11/03 04:21:29;;;;;;;;;;;;;;;24.76;30.74;95579.53;4918737;29;20005;-89
2023/11/03 04:23:58;;;;;;;;;;;;;;;25.51;30.52;95571.34;4920093;29;19918;-90
2023/11/03 04:26:24;;;;;;;;;;;;;;;25.45;30.21;95558.56;4910745;29;20387;-89
2023/11/03 04:28:51;;;;;;;;;;;;;;;24.87;30.89;95554.38;4909355;29;20339;-89
2023/11/03 04:31:17;;;;;;;;;;;;;;;26.48;28.75;95559.41;4906928;29;19919;-89
2023/11/03 04:33:43;;;;;;;;;;;;;;;27.61;26.53;95539.03;4904922;29;19931;-89
2023/11/03 04:36:09;;;;;;;;;;;;;;;27.95;26.57;95548.84;4911736;29;19968;-91
2023/11/03 04:38:35;;;;;;;;;;;;;;;28.59;25.48;95539.75;4894886;29;20020;-89
2023/11/03 04:41:01;;;;;;;;;;;;;;;29.41;24.77;95545.94;4907345;29;19928;-90
2023/11/03 04:43:28;;;;;;;;;;;;;;;29.52;24.40;95541.47;4900264;29;19923;-89
2023/11/03 04:45:54;;;;;;;;;;;;;;;29.78;24.41;95547.34;4918864;29;20287;-90
2023/11/03 04:48:23;;;;;;;;;;;;;;;29.82;24.10;95542.16;4919001;29;19970;-90
2023/11/03 04:50:49;;;;;;;;;;;;;;;30.11;23.54;95544.06;4909024;29;20018;-90
2023/11/03 04:53:15;;;;;;;;;;;;;;;28.78;24.76;95539.13;4905884;29;20418;-89
2023/11/03 04:55:41;;;;;;;;;;;;;;;28.53;25.37;95539.03;4914143;29;19970;-89
2023/11/03 04:58:07;;;;;;;;;;;;;;;28.24;25.97;95553.84;4904825;29;20015;-90
2023/11/03 05:00:33;;;;;;;;;;;;;;;27.41;26.94;95557.03;4900380;29;19920;-88
2023/11/03 05:03:00;;;;;;;;;;;;;;;28.68;25.35;95555.63;4908956;29;19994;-89
2023/11/03 05:05:29;;;;;;;;;;;;;;;29.85;23.63;95550.31;4909763;29;19920;-90
2023/11/03 05:07:56;;;;;;;;;;;;;;;30.55;22.76;95534.19;4916593;29;19962;-89
2023/11/03 05:10:22;;;;;;;;;;;;;;;30.58;23.05;95541.59;4910287;29;19931;-90
2023/11/03 05:12:48;;;;;;;;;;;;;;;30.13;23.52;95549.94;4910143;29;19930;-89
2023/11/03 05:15:14;;;;;;;;;;;;;;;29.78;24.03;95561.50;4902078;29;19983;-89
2023/11/03 05:17:40;;;;;;;;;;;;;;;28.63;24.83;95547.97;4903825;29;20347;-88
2023/11/03 05:20:08;;;;;;;;;;;;;;;28.27;25.57;95558.44;4913614;29;20446;-89
2023/11/03 05:22:35;;;;;;;;;;;;;;;26.73;26.75;95560.41;4904729;29;19931;-88
2023/11/03 05:25:01;;;;;;;;;;;;;;;27.85;26.07;95570.19;4906778;29;19920;-89
2023/11/03 05:27:27;;;;;;;;;;;;;;;28.27;25.65;95578.19;4900198;29;19978;-89
2023/11/03 05:29:53;;;;;;;;;;;;;;;29.13;24.64;95545.44;4911103;29;19930;-90
2023/11/03 05:32:19;;;;;;;;;;;;;;;28.80;25.05;95540.09;4899948;29;19916;-89
2023/11/03 05:34:45;;;;;;;;;;;;;;;29.36;24.24;95541.09;4904383;29;20283;-91
2023/11/03 05:37:11;;;;;;;;;;;;;;;29.37;24.46;95548.31;4911144;29;20307;-89
2023/11/03 05:39:37;;;;;;;;;;;;;;;30.11;23.42;95529.16;4917139;29;20027;-89
2023/11/03 05:42:04;;;;;;;;;;;;;;;29.82;24.01;95540.09;4918933;29;19927;-89
2023/11/03 05:44:30;;;;;;;;;;;;;;;29.35;24.06;95533.94;4912046;29;19923;-91
2023/11/03 05:46:56;;;;;;;;;;;;;;;28.28;24.86;95531.00;4915906;29;19923;-89
2023/11/03 05:49:22;;;;;;;;;;;;;;;27.86;25.80;95516.09;4903674;29;19931;-89
2023/11/03 05:51:49;;;;;;;;;;;;;;;27.42;26.39;95513.50;4916356;29;20397;-90
2023/11/03 05:54:16;;;;;;;;;;;;;;;27.42;26.81;95502.97;4911763;29;19923;-86
2023/11/03 05:56:43;;;;;;;;;;;;;;;27.48;26.56;95502.94;4908271;29;19923;-88
2023/11/03 05:59:09;;;;;;;;;;;;;;;27.76;25.70;95514.88;4902135;29;19924;-87
2023/11/03 06:01:35;;;;;;;;;;;;;;;26.95;27.13;95503.34;4892622;29;19939;-86
2023/11/03 06:04:01;;;;;;;;;;;;;;;26.43;27.18;95503.09;4906930;29;20432;-88
2023/11/03 06:06:28;;;;;;;;;;;;;;;26.47;27.71;95507.19;4897361;29;19994;-89
2023/11/03 06:08:55;;;;;;;;;;;;;;;27.08;26.96;95520.47;4911256;29;19923;-89
2023/11/03 06:11:22;;;;;;;;;;;;;;;27.79;25.70;95529.97;4907266;29;19942;-91
2023/11/03 06:13:48;;;;;;;;;;;;;;;28.80;25.05;95545.75;4909770;29;20220;-90
2023/11/03 06:16:18;;;;;;;;;;;;;;;29.23;23.90;95548.72;4908268;29;19943;-89
2023/11/03 06:18:45;;;;;;;;;;;;;;;29.65;23.49;95542.31;4913053;29;19939;-91
2023/11/03 06:21:11;;;;;;;;;;;;;;;29.54;24.02;95536.81;4908446;29;19919;-90
2023/11/03 06:23:41;;;;;;;;;;;;;;;29.33;23.84;95533.72;4911957;29;19926;-90
2023/11/03 06:26:07;;;;;;;;;;;;;;;28.60;24.79;95523.59;4909785;29;19919;-91
2023/11/03 06:28:35;;;;;;;;;;;;;;;28.92;25.11;95526.63;4910443;29;19930;-93
2023/11/03 06:31:01;;;;;;;;;;;;;;;28.58;24.97;95532.56;4913249;29;20364;-92
2023/11/03 06:33:27;;;;;;;;;;;;;;;28.71;24.68;95531.97;4914667;29;19951;-91
2023/11/03 06:35:53;;;;;;;;;;;;;;;28.97;24.73;95523.75;4911850;29;20370;-92
2023/11/03 06:38:19;;;;;;;;;;;;;;;29.41;24.21;95523.31;4907209;29;19979;-90
2023/11/03 06:40:45;;;;;;;;;;;;;;;29.87;23.65;95538.50;4910917;29;20285;-90
2023/11/03 06:43:11;;;;;;;;;;;;;;;29.67;23.68;95510.66;4913321;29;20380;-90
2023/11/03 06:45:37;;;;;;;;;;;;;;;29.66;23.86;95512.75;4906356;29;19979;-93
2023/11/03 06:48:03;;;;;;;;;;;;;;;29.94;24.01;95499.00;4906949;29;19991;-94
2023/11/03 06:50:29;;;;;;;;;;;;;;;30.59;23.31;95489.31;4912754;29;19919;-93
2023/11/03 06:52:56;;;;;;;;;;;;;;;30.82;22.97;95467.78;4907303;29;19937;-93
2023/11/03 06:55:22;;;;;;;;;;;;;;;30.03;23.80;95447.72;4892300;29;20339;-94
2023/11/03 06:57:48;;;;;;;;;;;;;;;30.27;23.32;95441.13;4912153;29;19919;-89
2023/11/03 07:00:14;;;;;;;;;;;;;;;30.27;23.52;95466.63;4904605;29;20414;-93
2023/11/03 07:02:41;;;;;;;;;;;;;;;30.44;23.07;95484.16;4909702;29;19935;-94
2023/11/03 07:05:08;;;;;;;;;;;;;;;30.60;22.90;95488.78;4912907;29;19924;-92
2023/11/03 07:07:35;;;;;;;;;;;;;;;29.34;23.22;95500.53;4907722;29;19927;-92
2023/11/03 07:10:02;;;;;;;;;;;;;;;28.47;25.74;95500.84;4911505;29;19919;-93
2023/11/03 07:12:30;;;;;;;;;;;;;;;28.56;25.60;95504.09;4914730;29;19923;-92
2023/11/03 07:14:56;;;;;;;;;;;;;;;29.12;24.95;95501.53;4912851;29;19933;-95
2023/11/03 07:17:22;;;;;;;;;;;;;;;30.24;23.36;95503.75;4917942;29;19930;-95
2023/11/03 07:19:48;;;;;;;;;;;;;;;31.07;23.44;95510.91;4919581;29;19927;-95
2023/11/03 07:22:15;;;;;;;;;;;;;;;30.96;22.77;95496.94;4919470;29;19927;-96
2023/11/03 07:24:42;;;;;;;;;;;;;;;30.68;23.63;95491.72;4918192;29;19919;-96
2023/11/03 07:27:11;;;;;;;;;;;;;;;31.07;23.08;95491.06;4917005;29;19923;-96
2023/11/03 07:29:37;;;;;;;;;;;;;;;31.29;21.99;95497.09;4919858;29;19931;-95
2023/11/03 07:32:05;;;;;;;;;;;;;;;31.39;22.37;95491.75;4919726;29;20367;-95
2023/11/03 07:34:32;;;;;;;;;;;;;;;31.44;22.16;95478.78;4919373;29;20310;-96
2023/11/03 07:36:58;;;;;;;;;;;;;;;31.18;22.12;95479.53;4919070;29;19942;-93
2023/11/03 07:39:25;;;;;;;;;;;;;;;31.45;22.75;95475.41;4911680;29;19924;-93
2023/11/03 07:41:51;;;;;;;;;;;;;;;30.64;23.40;95486.38;4914352;29;19950;-94
2023/11/03 07:44:17;;;;;;;;;;;;;;;31.06;22.63;95481.81;4915827;29;19927;-93
2023/11/03 07:46:43;;;;;;;;;;;;;;;31.39;23.02;95475.47;4918075;29;19919;-92
2023/11/03 07:49:09;;;;;;;;;;;;;;;31.66;22.62;95473.41;4915724;29;19923;-93
2023/11/03 07:51:35;;;;;;;;;;;;;;;31.72;22.77;95488.25;4913571;29;19929;-92
2023/11/03 07:54:01;;;;;;;;;;;;;;;31.73;22.05;95469.91;4917512;29;20308;-93
2023/11/03 07:56:28;;;;;;;;;;;;;;;31.60;22.01;95475.59;4917598;29;19931;-93
2023/11/03 07:58:55;;;;;;;;;;;;;;;31.49;22.36;95458.03;4919186;29;19923;-93
2023/11/03 08:01:21;;;;;;;;;;;;;;;31.06;22.82;95473.31;4915972;29;20371;-93
2023/11/03 08:03:47;;;;;;;;;;;;;;;31.25;22.46;95481.72;4917098;29;19919;-92
2023/11/03 08:06:14;;;;;;;;;;;;;;;31.12;22.48;95454.13;4918830;29;19923;-92
2023/11/03 08:08:41;;;;;;;;;;;;;;;30.98;22.41;95471.66;4918179;29;20038;-93
2023/11/03 08:11:08;;;;;;;;;;;;;;;31.04;22.97;95470.22;4914637;29;19935;-92
2023/11/03 08:13:34;;;;;;;;;;;;;;;31.11;22.84;95460.34;4897929;29;20402;-93
2023/11/03 08:16:01;;;;;;;;;;;;;;;30.89;22.42;95467.19;4918881;29;20011;-92
2023/11/03 08:18:30;;;;;;;;;;;;;;;31.17;22.37;95467.44;4915985;29;20315;-94
2023/11/03 08:20:56;;;;;;;;;;;;;;;31.56;22.21;95463.06;4916253;29;19963;-93
2023/11/03 08:23:22;;;;;;;;;;;;;;;31.27;22.97;95462.09;4912741;29;19923;-92
2023/11/03 08:25:48;;;;;;;;;;;;;;;31.27;22.87;95462.81;4919328;29;20018;-94
2023/11/03 08:28:15;;;;;;;;;;;;;;;31.05;22.55;95454.00;4916628;29;19933;-93
2023/11/03 08:30:41;;;;;;;;;;;;;;;31.44;22.79;95465.34;4909503;29;19979;-93
2023/11/03 08:33:08;;;;;;;;;;;;;;;31.42;22.25;95453.78;4909030;29;19923;-91
2023/11/03 08:35:34;;;;;;;;;;;;;;;31.22;22.75;95446.72;4908736;29;19923;-92
2023/11/03 08:38:02;;;;;;;;;;;;;;;31.31;22.75;95440.59;4906610;29;19951;-91
2023/11/03 08:40:28;;;;;;;;;;;;;;;31.21;22.92;95439.50;4911409;29;20010;-92
2023/11/03 08:42:54;;;;;;;;;;;;;;;31.32;22.74;95444.94;4904758;29;19931;-92
2023/11/03 08:45:20;;;;;;;;;;;;;;;31.42;23.11;95429.03;4906301;29;19932;-92
2023/11/03 08:47:46;;;;;;;;;;;;;;;30.00;24.19;95425.38;4914473;29;20306;-91
2023/11/03 08:50:13;;;;;;;;;;;;;;;30.41;23.98;95427.84;4919187;29;19924;-93
2023/11/03 08:52:40;;;;;;;;;;;;;;;30.41;24.18;95408.03;4903815;29;20379;-89
2023/11/03 08:55:07;;;;;;;;;;;;;;;30.63;24.53;95416.88;4908099;29;20454;-91
2023/11/03 08:57:33;;;;;;;;;;;;;;;30.15;24.56;95405.84;4919599;29;19919;-89
2023/11/03 09:00:01;;;;;;;;;;;;;;;29.19;25.89;95404.88;4919795;29;19926;-90
2023/11/03 09:02:27;;;;;;;;;;;;;;;29.70;25.61;95402.13;4919700;29;20014;-90
2023/11/03 09:04:53;;;;;;;;;;;;;;;28.42;26.85;95414.91;4920756;29;20370;-92
2023/11/03 09:07:19;;;;;;;;;;;;;;;29.29;26.21;95408.09;4923947;29;19997;-89
2023/11/03 09:09:45;;;;;;;;;;;;;;;29.70;25.78;95402.91;4926725;29;19923;-90
2023/11/03 09:12:12;;;;;;;;;;;;;;;30.38;24.81;95406.25;4918441;29;19939;-91
2023/11/03 09:14:38;;;;;;;;;;;;;;;30.05;24.73;95396.22;4916440;29;19930;-89
2023/11/03 09:17:06;;;;;;;;;;;;;;;29.71;25.11;95387.44;4916476;29;19927;-90
2023/11/03 09:19:32;;;;;;;;;;;;;;;29.11;25.93;95391.84;4908680;29;19919;-92
2023/11/03 09:21:58;;;;;;;;;;;;;;;28.72;26.64;95381.00;4917958;29;19930;-91
2023/11/03 09:24:24;;;;;;;;;;;;;;;28.76;25.93;95381.47;4900899;29;20014;-88
2023/11/03 09:26:51;;;;;;;;;;;;;;;28.38;26.50;95362.88;4900228;29;20019;-90
2023/11/03 09:29:19;;;;;;;;;;;;;;;28.91;26.02;95370.53;4907677;29;20375;-90
2023/11/03 09:31:47;;;;;;;;;;;;;;;28.81;26.65;95360.09;4918780;29;20036;-90
2023/11/03 09:34:13;;;;;;;;;;;;;;;29.05;26.01;95352.38;4918998;29;19954;-91
2023/11/03 09:36:39;;;;;;;;;;;;;;;28.12;27.23;95348.50;4913341;29;19923;-88
2023/11/03 09:39:05;;;;;;;;;;;;;;;28.69;26.55;95336.88;4928570;29;19919;-92
2023/11/03 09:41:38;;;;;;;;;;;;;;;29.34;25.41;95343.00;4930464;29;19986;-92
2023/11/03 09:44:05;;;;;;;;;;;;;;;29.21;26.02;95331.63;4899588;29;19927;-91
2023/11/03 09:46:32;;;;;;;;;;;;;;;28.67;26.07;95325.34;4894558;29;19919;-92
2023/11/03 09:48:58;;;;;;;;;;;;;;;28.67;26.29;95328.19;4913726;29;19924;-91
2023/11/03 09:51:26;;;;;;;;;;;;;;;28.70;26.28;95329.94;4899991;29;19924;-91
2023/11/03 09:53:53;;;;;;;;;;;;;;;28.79;26.04;95320.34;4914201;29;19924;-89
2023/11/03 09:56:19;;;;;;;;;;;;;;;29.33;25.52;95316.06;4884806;29;20331;-90
2023/11/03 09:58:46;;;;;;;;;;;;;;;29.17;25.69;95307.78;4917882;29;20407;-90
2023/11/03 10:01:15;;;;;;;;;;;;;;;29.06;25.47;95317.16;4902886;29;19947;-88
2023/11/03 10:03:42;;;;;;;;;;;;;;;29.71;24.88;95313.16;4906909;29;19927;-89
2023/11/03 10:06:08;;;;;;;;;;;;;;;29.36;25.12;95297.22;4909814;29;19948;-89
2023/11/03 10:08:39;;;;;;;;;;;;;;;29.69;25.20;95302.38;4890762;29;19924;-90
2023/11/03 10:11:05;;;;;;;;;;;;;;;30.42;24.32;95284.94;4906954;29;19933;-92
2023/11/03 10:13:33;;;;;;;;;;;;;;;31.00;23.88;95284.81;4915513;29;19934;-91
2023/11/03 10:16:01;;;;;;;;;;;;;;;31.13;23.47;95279.91;4902235;29;19920;-91
2023/11/03 10:18:27;;;;;;;;;;;;;;;31.47;22.72;95270.63;4898835;29;20403;-88
2023/11/03 10:20:57;;;;;;;;;;;;;;;31.27;22.90;95280.63;4901386;29;19930;-90
2023/11/03 10:23:23;;;;;;;;;;;;;;;31.29;23.19;95280.84;4916541;29;19927;-91
2023/11/03 10:25:50;;;;;;;;;;;;;;;31.55;22.90;95277.94;4916738;29;20437;-91
2023/11/03 10:28:17;;;;;;;;;;;;;;;31.76;22.76;95275.09;4912983;29;19923;-92
2023/11/03 10:30:51;;;;;;;;;;;;;;;31.99;22.50;95268.34;4917910;29;20566;-91
2023/11/03 10:33:18;;;;;;;;;;;;;;;31.79;22.61;95263.41;4909882;29;19919;-90
2023/11/03 10:35:44;;;;;;;;;;;;;;;31.29;22.82;95256.09;4909126;29;19927;-89
2023/11/03 10:38:10;;;;;;;;;;;;;;;30.92;23.35;95252.81;4901982;29;19920;-89
2023/11/03 10:40:36;;;;;;;;;;;;;;;31.45;22.69;95234.34;4882664;29;19927;-91
2023/11/03 10:43:05;;;;;;;;;;;;;;;31.34;23.48;95237.41;4898620;29;19930;-92
2023/11/03 10:45:31;;;;;;;;;;;;;;;31.62;23.55;95222.59;4912169;29;20339;-90
2023/11/03 10:48:01;;;;;;;;;;;;;;;31.23;23.25;95220.63;4905249;29;20366;-92
2023/11/03 10:50:33;;;;;;;;;;;;;;;31.19;23.76;95220.22;4914171;29;19923;-92
2023/11/03 10:53:12;;;;;;;;;;;;;;;31.15;23.86;95237.59;4898571;29;19919;-92
2023/11/03 10:55:44;;;;;;;;;;;;;;;31.15;23.59;95242.50;4908679;29;20018;-91
2023/11/03 10:58:11;;;;;;;;;;;;;;;30.74;24.21;95252.34;4910303;29;19934;-91
2023/11/03 11:00:42;;;;;;;;;;;;;;;30.65;24.10;95249.22;4898971;29;20018;-91
2023/11/03 11:03:22;;;;;;;;;;;;;;;31.18;23.41;95225.13;4915044;29;20336;-88
2023/11/03 11:06:00;;;;;;;;;;;;;;;31.21;23.81;95220.44;4900199;29;19927;-90
2023/11/03 11:08:27;;;;;;;;;;;;;;;30.63;24.40;95220.66;4903437;29;20018;-89
2023/11/03 11:10:54;;;;;;;;;;;;;;;29.77;24.98;95207.16;4909188;29;19973;-91
2023/11/03 11:13:25;;;;;;;;;;;;;;;26.21;30.23;95159.97;4900191;29;19931;-89
2023/11/03 11:15:56;;;;;;;;;;;;;;;28.10;27.94;95201.56;4898595;29;19920;-91
2023/11/03 11:18:28;;;;;;;;;;;;;;;27.90;27.67;95163.28;4906200;29;19930;-89
2023/11/03 11:20:56;;;;;;;;;;;;;;;28.79;27.34;95181.97;4901077;29;19927;-93
2023/11/03 11:23:23;;;;;;;;;;;;;;;28.37;27.15;95175.06;4898906;29;19930;-89
2023/11/03 11:25:52;;;;;;;;;;;;;;;29.32;25.98;95203.50;4900230;29;19927;-91
2023/11/03 11:28:32;;;;;;;;;;;;;;;28.88;26.12;95192.88;4899306;29;20405;-93
2023/11/03 11:30:58;;;;;;;;;;;;;;;29.03;26.54;95179.03;4898033;29;19978;-89
2023/11/03 11:33:26;;;;;;;;;;;;;;;29.77;25.93;95195.84;4898620;29;19935;-91
2023/11/03 11:35:52;;;;;;;;;;;;;;;29.75;25.48;95183.50;4898578;29;20398;-90
2023/11/03 11:38:19;;;;;;;;;;;;;;;30.36;25.24;95188.03;4898859;29;20376;-90
2023/11/03 11:40:46;;;;;;;;;;;;;;;30.44;24.59;95192.50;4907338;29;19983;-89
2023/11/03 11:43:12;;;;;;;;;;;;;;;31.11;23.84;95196.72;4910089;29;19939;-89
2023/11/03 11:45:41;;;;;;;;;;;;;;;30.87;24.16;95194.91;4898494;29;19923;-90
2023/11/03 11:48:12;;;;;;;;;;;;;;;30.95;25.16;95209.94;4916683;29;19920;-90
2023/11/03 11:50:40;;;;;;;;;;;;;;;30.74;25.43;95215.53;4900074;29;20030;-90
2023/11/03 11:53:08;;;;;;;;;;;;;;;31.27;23.83;95215.41;4907611;29;19924;-89
2023/11/03 11:55:35;;;;;;;;;;;;;;;30.77;24.46;95216.50;4897930;29;19926;-89
2023/11/03 11:58:02;;;;;;;;;;;;;;;29.08;27.11;95210.00;4899014;29;19947;-90
2023/11/03 12:00:28;;;;;;;;;;;;;;;28.59;27.12;95206.59;4898504;29;19924;-90
2023/11/03 12:02:54;;;;;;;;;;;;;;;29.08;26.84;95226.97;4912249;29;20013;-92
2023/11/03 12:05:23;;;;;;;;;;;;;;;29.19;26.91;95220.44;4920676;29;19920;-88
2023/11/03 12:07:50;;;;;;;;;;;;;;;29.92;25.66;95220.78;4920533;29;19930;-91
2023/11/03 12:10:16;;;;;;;;;;;;;;;30.75;25.18;95211.41;4920342;29;19958;-91
2023/11/03 12:12:43;;;;;;;;;;;;;;;30.80;24.58;95215.41;4920819;29;20009;-91
2023/11/03 12:15:09;;;;;;;;;;;;;;;31.16;24.54;95221.31;4913718;29;19930;-91
2023/11/03 12:17:35;;;;;;;;;;;;;;;30.20;25.27;95237.97;4906764;29;19932;-89
2023/11/03 12:20:01;;;;;;;;;;;;;;;30.90;25.47;95225.00;4901891;29;19920;-91
2023/11/03 12:22:28;;;;;;;;;;;;;;;31.22;24.43;95217.06;4901294;29;19920;-91
2023/11/03 12:24:55;;;;;;;;;;;;;;;31.17;24.68;95228.53;4907740;29;20010;-92
2023/11/03 12:27:21;;;;;;;;;;;;;;;31.40;25.05;95229.53;4920124;29;19923;-90
2023/11/03 12:29:47;;;;;;;;;;;;;;;31.21;24.27;95229.72;4919679;29;19919;-93
2023/11/03 12:32:14;;;;;;;;;;;;;;;31.65;24.34;95236.41;4921681;29;19926;-93
2023/11/03 12:34:42;;;;;;;;;;;;;;;31.72;24.31;95227.19;4917017;29;19930;-91
2023/11/03 12:37:09;;;;;;;;;;;;;;;32.09;24.41;95215.41;4909018;29;19923;-93
2023/11/03 12:39:51;;;;;;;;;;;;;;;31.49;24.65;95214.88;4903519;29;20387;-93
2023/11/03 12:42:18;;;;;;;;;;;;;;;31.62;25.49;95216.91;4914389;29;19934;-91
2023/11/03 12:44:48;;;;;;;;;;;;;;;31.85;24.93;95201.59;4924993;29;20534;-91